Terminal Aerodrome Forecast
Issued by NWS

Home | Current Version | Previous Version | Text Only | Print | Product List | Glossary On
Versions: 1 2 3 4 5 6 7 8 9 10 11 12 13 14 15 16 17 18 19
000
FTUS43 KAPX 290953 AAB
TAFAPN
TAF AMD
KAPN 290953Z 2910/3006 16009KT P6SM VCSH OVC060 WS020/19034KT
     FM291100 17009KT 2SM -SN OVC018
      TEMPO 2911/2915 3/4SM -SN BKN008 OVC015
     FM291600 28008KT P6SM VCSH OVC015
     FM292100 30010G17KT P6SM OVC025
     FM300000 30012G22KT P6SM VCSH BKN025 OVC040=

USA.gov is the U.S. government's official web portal to all federal, state and local government web resources and services.